Time;durP1;ratioP1;P1;durP2;ratioP2;P2;SDS_P1;SDS_P2;PMS_P1;PMS_P2;Temp;Humidity;BMP_temperature;BMP_pressure;BME280_temperature;BME280_humidity;BME280_pressure;Samples;Min_cycle;Max_cycle;Signal;HPM_P1;HPM_P2
2022/07/06 00:03:42;;;;;;;2.87;1.27;;;27.70;73.90;;;;;;10949034;32;20041;-73
2022/07/06 00:09:44;;;;;;;3.08;1.55;;;27.60;73.30;;;;;;10944437;32;20016;-73
2022/07/06 00:15:46;;;;;;;1.52;1.17;;;27.50;73.00;;;;;;10948472;32;20418;-72
2022/07/06 00:21:50;;;;;;;4.62;1.37;;;27.50;73.90;;;;;;10948270;32;20019;-71
2022/07/06 00:27:51;;;;;;;2.92;1.02;;;27.40;74.40;;;;;;10948052;32;20018;-74
2022/07/06 00:33:54;;;;;;;1.20;0.98;;;27.40;74.40;;;;;;10948056;32;20065;-74
2022/07/06 00:39:56;;;;;;;4.55;1.55;;;27.50;74.20;;;;;;10947807;32;20035;-75
2022/07/06 00:45:58;;;;;;;4.12;1.08;;;27.50;73.50;;;;;;10947573;32;20304;-71
2022/07/06 00:52:00;;;;;;;2.78;1.10;;;27.30;74.10;;;;;;10947108;32;20030;-70
2022/07/06 00:58:04;;;;;;;3.17;1.12;;;26.90;75.00;;;;;;10942955;32;20391;-70
2022/07/06 01:04:05;;;;;;;1.55;0.88;;;26.80;75.90;;;;;;10946893;32;20041;-70
2022/07/06 01:10:09;;;;;;;1.75;0.70;;;26.70;75.30;;;;;;10933254;32;20019;-71
2022/07/06 01:16:12;;;;;;;6.55;1.60;;;26.70;75.00;;;;;;10946506;32;20023;-70
2022/07/06 01:22:14;;;;;;;6.65;1.02;;;27.00;74.60;;;;;;10941959;32;20038;-70
2022/07/06 01:28:16;;;;;;;1.45;0.60;;;27.10;73.90;;;;;;10946089;32;20019;-70
2022/07/06 01:34:36;;;;;;;2.85;1.20;;;27.00;73.90;;;;;;10945870;32;20042;-70
2022/07/06 01:40:39;;;;;;;1.92;0.95;;;27.30;73.50;;;;;;10945524;32;20019;-70
2022/07/06 01:46:41;;;;;;;2.40;1.25;;;27.30;72.70;;;;;;10945537;32;20015;-70
2022/07/06 01:52:43;;;;;;;4.07;1.00;;;27.10;72.90;;;;;;10945273;32;20064;-71
2022/07/06 01:58:46;;;;;;;1.00;0.60;;;27.20;72.80;;;;;;10944936;32;20372;-71
2022/07/06 02:04:49;;;;;;;1.85;1.00;;;27.10;72.40;;;;;;10944826;32;20041;-71
2022/07/06 02:10:51;;;;;;;2.85;1.08;;;26.80;72.40;;;;;;10944411;32;20042;-71
2022/07/06 02:16:53;;;;;;;2.28;1.12;;;26.90;72.40;;;;;;10944259;32;20434;-72
2022/07/06 02:22:56;;;;;;;1.75;1.00;;;27.00;72.30;;;;;;10926047;32;20023;-71
2022/07/06 02:28:58;;;;;;;2.62;1.00;;;27.00;71.70;;;;;;10943900;32;20327;-71
2022/07/06 02:35:00;;;;;;;2.90;1.40;;;26.70;72.10;;;;;;10943727;32;20347;-71
2022/07/06 02:41:02;;;;;;;3.62;0.93;;;26.90;71.80;;;;;;10943436;32;20023;-71
2022/07/06 02:47:05;;;;;;;1.75;1.12;;;26.80;71.50;;;;;;10943347;32;20038;-71
2022/07/06 02:53:08;;;;;;;1.55;1.12;;;26.70;71.70;;;;;;10943096;32;20334;-71
2022/07/06 02:59:10;;;;;;;2.10;1.08;;;26.50;71.70;;;;;;10942766;32;20434;-73
2022/07/06 03:05:12;;;;;;;1.95;1.08;;;26.70;71.70;;;;;;10942608;32;20160;-72
2022/07/06 03:11:15;;;;;;;3.42;1.23;;;26.80;71.80;;;;;;10929109;32;20418;-72
2022/07/06 03:17:17;;;;;;;3.45;1.33;;;27.00;71.60;;;;;;10942248;32;20050;-72
2022/07/06 03:23:20;;;;;;;3.35;1.80;;;27.00;71.10;;;;;;10941794;32;20015;-72
2022/07/06 03:29:48;;;;;;;3.62;1.77;;;27.00;70.90;;;;;;10941922;32;20042;-72
2022/07/06 03:35:51;;;;;;;1.50;0.90;;;26.90;70.70;;;;;;10941930;32;20034;-72
2022/07/06 03:41:53;;;;;;;2.92;1.30;;;26.90;70.80;;;;;;10941599;32;20066;-73
2022/07/06 03:47:55;;;;;;;1.60;1.33;;;27.00;70.80;;;;;;10941584;32;20015;-68
2022/07/06 03:53:57;;;;;;;1.52;1.00;;;26.90;70.70;;;;;;10937682;32;20034;-68
2022/07/06 03:59:59;;;;;;;5.22;2.75;;;26.80;70.70;;;;;;10941368;32;20023;-68
2022/07/06 04:06:30;;;;;;;5.00;1.98;;;26.70;70.70;;;;;;10941324;32;20038;-68
2022/07/06 04:12:39;;;;;;;1.42;1.02;;;26.60;70.80;;;;;;10939474;32;20027;-68
2022/07/06 04:18:59;;;;;;;2.62;1.77;;;26.40;70.70;;;;;;10936899;32;20316;-68
2022/07/06 04:25:39;;;;;;;1.67;1.23;;;26.40;70.80;;;;;;10929377;32;20027;-69
2022/07/06 04:31:42;;;;;;;2.85;2.15;;;26.50;70.50;;;;;;11000269;27;20033;-69
2022/07/06 04:37:45;;;;;;;3.58;1.83;;;26.40;70.50;;;;;;11023129;32;20049;-68
2022/07/06 04:43:48;;;;;;;3.83;2.03;;;26.40;70.40;;;;;;11023470;32;20386;-68
2022/07/06 04:49:51;;;;;;;2.42;1.10;;;26.40;70.40;;;;;;11009891;32;20056;-68
2022/07/06 04:55:54;;;;;;;1.17;1.00;;;26.50;70.10;;;;;;11018792;32;20045;-69
2022/07/06 05:02:07;;;;;;;2.20;1.33;;;26.40;70.20;;;;;;11019839;32;20022;-69
2022/07/06 05:08:10;;;;;;;1.95;1.52;;;26.50;70.20;;;;;;11019302;32;20026;-69
2022/07/06 05:14:12;;;;;;;3.37;1.92;;;26.70;69.90;;;;;;11017990;32;20030;-68
2022/07/06 05:20:22;;;;;;;1.83;1.40;;;26.80;69.60;;;;;;11017644;32;20056;-69
2022/07/06 05:26:24;;;;;;;1.30;1.17;;;27.10;69.20;;;;;;11020847;32;20057;-68
2022/07/06 05:32:27;;;;;;;2.03;1.35;;;27.20;68.80;;;;;;11016911;32;20045;-69
2022/07/06 05:38:29;;;;;;;1.45;1.20;;;27.20;68.80;;;;;;11019804;32;20441;-69
2022/07/06 05:44:32;;;;;;;2.03;1.40;;;27.30;68.70;;;;;;11018283;32;20026;-69
2022/07/06 05:50:35;;;;;;;1.37;1.15;;;27.30;68.80;;;;;;11020515;32;20057;-69
2022/07/06 05:56:38;;;;;;;2.75;1.45;;;27.40;68.90;;;;;;11016921;32;20395;-69
2022/07/06 06:02:42;;;;;;;1.80;1.33;;;27.60;68.40;;;;;;11017506;32;20031;-69
2022/07/06 06:08:45;;;;;;;1.98;1.17;;;27.60;68.20;;;;;;11008124;32;20108;-69
2022/07/06 06:14:47;;;;;;;4.28;1.70;;;27.70;68.20;;;;;;10978339;32;20015;-69
2022/07/06 06:20:49;;;;;;;3.50;1.70;;;27.80;68.20;;;;;;10977312;32;20027;-69
2022/07/06 06:26:51;;;;;;;3.55;1.90;;;27.90;67.90;;;;;;10981094;32;20335;-69
2022/07/06 06:39:58;;;;;;;2.17;1.33;;;28.10;67.20;;;;;;11013197;32;20307;-69
2022/07/06 06:46:00;;;;;;;1.17;0.77;;;28.10;67.00;;;;;;11001411;32;20053;-68
2022/07/06 06:52:02;;;;;;;1.90;1.20;;;28.10;67.00;;;;;;11000975;32;20034;-68
2022/07/06 06:58:04;;;;;;;2.42;1.35;;;28.20;66.80;;;;;;11013768;32;20030;-68
2022/07/06 07:04:06;;;;;;;1.52;1.00;;;28.30;66.70;;;;;;11014168;32;20022;-67
2022/07/06 07:10:08;;;;;;;0.85;0.80;;;28.40;66.30;;;;;;11017680;32;20022;-67
2022/07/06 07:16:10;;;;;;;1.60;0.88;;;28.70;66.20;;;;;;11000112;32;20049;-68
2022/07/06 07:22:12;;;;;;;2.53;1.15;;;28.80;65.90;;;;;;11013511;32;20060;-68
2022/07/06 07:28:14;;;;;;;1.67;0.82;;;28.80;65.60;;;;;;11016287;32;20085;-67
2022/07/06 07:34:17;;;;;;;2.50;1.10;;;28.80;65.20;;;;;;11013803;32;20424;-68
2022/07/06 07:40:19;;;;;;;1.30;1.08;;;28.90;65.10;;;;;;11017398;32;20030;-68
2022/07/06 07:46:21;;;;;;;1.08;0.95;;;29.00;65.10;;;;;;10999462;32;20029;-68
2022/07/06 07:52:23;;;;;;;4.82;1.25;;;29.20;64.90;;;;;;11017144;32;20030;-67
2022/07/06 07:58:48;;;;;;;1.83;1.17;;;29.30;64.50;;;;;;11003400;32;20053;-67
2022/07/06 08:04:53;;;;;;;5.75;1.55;;;29.40;63.80;;;;;;11014407;32;20267;-66
2022/07/06 08:10:57;;;;;;;1.45;0.77;;;29.40;63.40;;;;;;11011165;32;20057;-67
2022/07/06 08:17:00;;;;;;;1.62;0.90;;;29.40;62.60;;;;;;11022785;32;20030;-67
2022/07/06 08:23:02;;;;;;;0.50;0.50;;;29.60;62.20;;;;;;11022321;32;20030;-68
2022/07/06 08:29:04;;;;;;;1.58;0.98;;;29.70;61.80;;;;;;11021176;32;20023;-67
2022/07/06 08:35:06;;;;;;;2.05;1.25;;;29.80;61.30;;;;;;11023797;32;20044;-67
2022/07/06 08:41:09;;;;;;;1.17;0.68;;;29.90;60.50;;;;;;11020068;32;20323;-67
2022/07/06 08:47:27;;;;;;;1.12;0.70;;;30.10;60.60;;;;;;11023178;32;20041;-67
2022/07/06 08:53:29;;;;;;;0.50;0.50;;;30.30;59.50;;;;;;11022992;32;20049;-67
2022/07/06 08:59:32;;;;;;;0.82;0.77;;;30.30;58.10;;;;;;11022682;32;20329;-67
2022/07/06 09:05:36;;;;;;;1.70;0.93;;;30.50;57.80;;;;;;11022757;32;20350;-68
2022/07/06 09:11:38;;;;;;;0.85;0.57;;;30.60;56.80;;;;;;11022426;32;20183;-67
2022/07/06 09:17:43;;;;;;;1.37;0.90;;;30.80;56.60;;;;;;11021181;32;20030;-68
2022/07/06 09:23:45;;;;;;;0.82;0.77;;;30.80;56.00;;;;;;11006638;32;20096;-67
2022/07/06 09:29:47;;;;;;;1.02;0.82;;;30.90;56.00;;;;;;11018019;32;20030;-68
2022/07/06 09:35:49;;;;;;;2.78;1.42;;;31.10;55.30;;;;;;11021589;32;20022;-67
2022/07/06 09:41:59;;;;;;;1.25;0.90;;;31.20;54.10;;;;;;11017096;32;20291;-68
2022/07/06 09:48:15;;;;;;;2.67;1.33;;;31.30;53.80;;;;;;11021069;32;20022;-67
2022/07/06 09:54:17;;;;;;;1.48;0.82;;;31.40;53.30;;;;;;11017180;32;20038;-68
2022/07/06 10:00:25;;;;;;;1.65;1.15;;;31.60;52.80;;;;;;11020688;32;20026;-67
2022/07/06 10:06:48;;;;;;;2.08;1.30;;;31.60;51.90;;;;;;11020408;32;20034;-67
2022/07/06 10:12:54;;;;;;;1.12;0.80;;;31.70;51.80;;;;;;11017270;32;20049;-68
2022/07/06 10:18:57;;;;;;;0.70;0.68;;;31.80;51.10;;;;;;11003267;32;20022;-68
2022/07/06 10:25:25;;;;;;;1.98;1.37;;;31.90;50.60;;;;;;11019822;32;20049;-68
2022/07/06 10:31:29;;;;;;;1.83;0.95;;;32.20;50.10;;;;;;11019145;32;20052;-69
2022/07/06 10:37:33;;;;;;;2.85;1.00;;;32.30;49.00;;;;;;11016480;32;20164;-69
2022/07/06 10:44:24;;;;;;;1.87;0.82;;;32.60;47.90;;;;;;11014839;32;20061;-69
2022/07/06 10:50:35;;;;;;;1.27;0.95;;;32.80;47.10;;;;;;10860882;32;20046;-68
2022/07/06 10:56:42;;;;;;;0.55;0.55;;;32.90;46.20;;;;;;10863754;32;20411;-69
2022/07/06 11:02:44;;;;;;;1.50;0.63;;;33.30;45.60;;;;;;10859301;32;20027;-69
2022/07/06 11:08:50;;;;;;;0.82;0.75;;;33.40;44.10;;;;;;10863564;32;20016;-69
2022/07/06 11:14:53;;;;;;;0.98;0.75;;;33.60;42.90;;;;;;10860355;32;20035;-69
2022/07/06 11:21:20;;;;;;;0.62;0.52;;;33.80;43.00;;;;;;10859966;32;20059;-69
2022/07/06 11:27:26;;;;;;;2.17;0.90;;;33.90;43.00;;;;;;11001783;32;20014;-69
2022/07/06 11:33:31;;;;;;;;;;;34.00;42.40;;;;;;10557060;32;12450142;-69
2022/07/06 11:39:40;;;;;;;3.15;0.68;;;34.30;41.40;;;;;;10937755;32;19935;-68
2022/07/06 11:45:42;;;;;;;0.98;0.80;;;34.60;40.80;;;;;;10947714;32;20053;-68
2022/07/06 11:51:46;;;;;;;4.10;1.40;;;34.60;40.50;;;;;;10950441;32;20345;-68
2022/07/06 11:57:49;;;;;;;7.95;1.65;;;34.80;40.10;;;;;;11009043;32;20050;-69
2022/07/06 12:03:52;;;;;;;6.45;1.00;;;35.00;39.60;;;;;;11030023;32;20022;-69
2022/07/06 12:09:54;;;;;;;2.00;0.98;;;35.00;39.10;;;;;;11027432;32;20095;-67
2022/07/06 12:15:56;;;;;;;1.90;0.70;;;35.10;39.00;;;;;;11025482;32;20018;-69
2022/07/06 12:21:58;;;;;;;1.87;0.98;;;35.10;39.10;;;;;;11029618;32;20026;-69
2022/07/06 12:28:01;;;;;;;2.50;1.23;;;35.30;38.60;;;;;;11025334;27;20042;-69
2022/07/06 12:34:05;;;;;;;7.75;1.05;;;35.40;37.90;;;;;;10975144;32;20026;-69
2022/07/06 12:40:14;;;;;;;1.10;0.70;;;35.40;37.60;;;;;;10986889;32;20390;-70
2022/07/06 12:46:30;;;;;;;0.82;0.80;;;35.40;36.20;;;;;;10986763;32;20026;-69
2022/07/06 12:53:17;;;;;;;0.82;0.60;;;35.30;36.00;;;;;;10984044;32;20034;-69
2022/07/06 12:59:23;;;;;;;0.50;0.50;;;35.40;35.50;;;;;;10792592;32;20036;-69
2022/07/06 13:05:30;;;;;;;0.50;0.50;;;35.40;34.40;;;;;;10789788;33;20055;-70
2022/07/06 13:11:33;;;;;;;2.35;0.65;;;35.40;34.10;;;;;;10793721;33;20033;-68
2022/07/06 13:17:38;;;;;;;1.02;0.75;;;35.30;33.80;;;;;;10782464;33;20051;-69
2022/07/06 13:23:41;;;;;;;0.62;0.50;;;35.30;33.80;;;;;;10790184;33;20028;-70
2022/07/06 13:29:43;;;;;;;1.10;0.40;;;35.20;33.80;;;;;;10789307;33;20062;-69
2022/07/06 13:35:45;;;;;;;1.25;0.70;;;35.20;33.50;;;;;;10939145;32;20382;-69
2022/07/06 13:42:22;;;;;;;1.50;0.73;;;35.20;33.40;;;;;;10969655;32;20023;-69
2022/07/06 13:48:34;;;;;;;1.08;0.68;;;35.30;32.60;;;;;;10958836;32;20061;-69
2022/07/06 13:54:36;;;;;;;0.60;0.40;;;35.30;32.80;;;;;;10978679;32;20444;-68
2022/07/06 14:00:39;;;;;;;1.85;0.52;;;35.20;32.80;;;;;;10941823;32;20441;-76
2022/07/06 14:06:42;;;;;;;0.95;0.73;;;35.20;32.70;;;;;;10954777;32;20022;-75
2022/07/06 14:12:44;;;;;;;0.80;0.68;;;35.20;32.60;;;;;;10982281;32;20027;-76
2022/07/06 14:18:47;;;;;;;0.80;0.68;;;35.00;34.20;;;;;;10981784;32;20350;-77
2022/07/06 14:24:49;;;;;;;0.70;0.55;;;34.90;35.10;;;;;;10981790;32;20023;-76
2022/07/06 14:31:19;;;;;;;0.60;0.45;;;34.80;34.50;;;;;;10981350;32;20027;-76
2022/07/06 14:37:21;;;;;;;1.10;0.68;;;34.80;35.70;;;;;;10981359;32;20544;-75
2022/07/06 14:43:24;;;;;;;1.62;0.60;;;34.80;35.20;;;;;;10981129;32;20386;-77
2022/07/06 14:49:27;;;;;;;1.40;0.80;;;34.90;34.50;;;;;;10966319;32;20027;-75
2022/07/06 14:55:30;;;;;;;0.80;0.50;;;35.00;34.30;;;;;;10943145;32;20023;-77
2022/07/06 15:01:39;;;;;;;0.55;0.40;;;35.00;34.10;;;;;;10942197;32;20045;-76
2022/07/06 15:07:41;;;;;;;0.60;0.37;;;35.00;34.00;;;;;;10942785;32;20391;-76
2022/07/06 15:13:43;;;;;;;0.77;0.40;;;35.00;33.70;;;;;;10942497;32;20053;-75
2022/07/06 15:19:47;;;;;;;1.98;0.40;;;34.90;33.80;;;;;;10941702;32;20053;-77
2022/07/06 15:25:50;;;;;;;0.57;0.35;;;35.10;33.50;;;;;;10942266;32;20046;-76
2022/07/06 15:31:52;;;;;;;0.47;0.40;;;35.10;33.40;;;;;;10942033;32;20037;-77
2022/07/06 15:37:54;;;;;;;1.52;0.52;;;35.00;33.70;;;;;;10941737;32;20058;-76
2022/07/06 15:43:56;;;;;;;0.70;0.40;;;34.90;33.60;;;;;;10941577;32;20051;-76
2022/07/06 15:49:59;;;;;;;0.52;0.52;;;35.00;33.50;;;;;;10941614;32;20011;-76
2022/07/06 15:56:02;;;;;;;0.62;0.40;;;34.90;34.10;;;;;;10927901;32;20023;-76
2022/07/06 16:02:29;;;;;;;0.68;0.35;;;34.90;33.70;;;;;;10940486;32;20105;-76
2022/07/06 16:08:43;;;;;;;2.53;0.50;;;35.00;33.50;;;;;;10946710;32;20035;-75
2022/07/06 16:14:46;;;;;;;0.52;0.35;;;35.10;33.30;;;;;;10937212;32;20065;-77
2022/07/06 16:20:49;;;;;;;0.22;0.20;;;35.10;33.60;;;;;;10966209;32;20054;-76
2022/07/06 16:27:30;;;;;;;0.40;0.30;;;35.10;33.20;;;;;;10980075;32;20034;-75
2022/07/06 16:33:34;;;;;;;1.12;0.60;;;35.20;33.40;;;;;;10955234;32;20023;-75
2022/07/06 16:39:37;;;;;;;0.30;0.20;;;35.30;33.40;;;;;;10948120;32;20089;-76
2022/07/06 16:45:39;;;;;;;0.55;0.30;;;35.30;33.40;;;;;;10947866;32;20019;-75
2022/07/06 16:51:55;;;;;;;0.85;0.50;;;35.30;33.30;;;;;;10964888;32;20072;-74
2022/07/06 16:57:57;;;;;;;0.30;0.30;;;35.30;33.10;;;;;;10984898;32;20041;-75
2022/07/06 17:03:59;;;;;;;0.82;0.50;;;35.30;33.30;;;;;;10984783;32;20018;-75
2022/07/06 17:10:20;;;;;;;0.62;0.37;;;35.10;33.60;;;;;;10984703;32;20354;-75
2022/07/06 17:16:23;;;;;;;0.40;0.40;;;34.90;33.90;;;;;;10984279;32;20314;-75
2022/07/06 17:22:25;;;;;;;0.50;0.40;;;34.70;34.60;;;;;;10984010;32;20384;-75
2022/07/06 17:28:28;;;;;;;0.45;0.30;;;34.40;35.30;;;;;;10971016;32;20046;-75
2022/07/06 17:34:30;;;;;;;0.55;0.55;;;34.20;36.00;;;;;;10970388;32;20026;-75
2022/07/06 17:40:32;;;;;;;1.90;0.75;;;34.20;36.10;;;;;;10966247;32;20057;-76
2022/07/06 17:46:35;;;;;;;0.30;0.30;;;34.10;36.60;;;;;;10944032;32;20030;-75
2022/07/06 17:59:05;;;;;;;1.27;0.45;;;35.30;35.70;;;;;;10942090;32;20023;-75
2022/07/06 18:05:09;;;;;;;0.68;0.37;;;36.70;34.60;;;;;;10931579;32;20026;-75
2022/07/06 18:11:11;;;;;;;1.37;0.50;;;36.40;35.70;;;;;;10944634;32;20031;-76
2022/07/06 18:17:15;;;;;;;0.80;0.32;;;35.30;37.30;;;;;;10944120;32;20391;-75
2022/07/06 18:23:18;;;;;;;1.77;0.60;;;34.60;38.40;;;;;;10943920;32;20031;-70
2022/07/06 18:29:22;;;;;;;0.85;0.47;;;34.00;39.20;;;;;;10926003;32;20391;-70
2022/07/06 18:35:29;;;;;;;0.70;0.20;;;33.60;39.90;;;;;;10940112;32;20035;-70
2022/07/06 18:41:57;;;;;;;1.48;0.50;;;33.40;40.60;;;;;;10953182;32;20089;-70
2022/07/06 18:48:12;;;;;;;0.65;0.50;;;33.10;41.10;;;;;;10964233;32;20030;-70
2022/07/06 18:54:14;;;;;;;1.37;0.50;;;32.90;41.60;;;;;;10975193;32;20034;-70
2022/07/06 19:00:28;;;;;;;1.05;0.47;;;32.60;42.00;;;;;;10978080;32;20050;-70
2022/07/06 19:06:30;;;;;;;1.15;0.40;;;32.40;42.70;;;;;;10954757;32;20129;-70
2022/07/06 19:12:32;;;;;;;2.45;0.40;;;32.30;43.90;;;;;;10941838;32;20043;-70
2022/07/06 19:18:35;;;;;;;9.82;0.95;;;32.10;44.50;;;;;;10940020;32;20027;-69
2022/07/06 19:24:59;;;;;;;8.25;1.20;;;32.00;45.00;;;;;;10938030;32;20027;-69
2022/07/06 19:31:01;;;;;;;2.22;0.68;;;31.80;45.40;;;;;;10938385;32;20046;-77
2022/07/06 19:37:03;;;;;;;0.45;0.30;;;31.70;45.80;;;;;;10943187;32;20011;-78
2022/07/06 19:43:05;;;;;;;1.12;0.80;;;31.50;46.40;;;;;;10942571;32;20053;-77
2022/07/06 19:49:08;;;;;;;2.92;1.37;;;31.40;46.70;;;;;;10929238;32;20020;-78
2022/07/06 19:55:13;;;;;;;8.40;1.87;;;31.40;46.90;;;;;;10928235;32;20053;-77
2022/07/06 20:01:20;;;;;;;2.37;1.30;;;31.40;47.10;;;;;;10942286;32;20035;-77
2022/07/06 20:07:22;;;;;;;0.85;0.65;;;31.30;47.60;;;;;;10949238;32;20057;-78
2022/07/06 20:13:24;;;;;;;7.60;1.75;;;31.20;48.70;;;;;;10948871;32;20053;-78
2022/07/06 20:19:30;;;;;;;3.10;0.82;;;31.10;48.90;;;;;;10948711;32;20473;-78
2022/07/06 20:25:33;;;;;;;2.00;0.85;;;31.00;49.10;;;;;;10948487;32;20031;-78
2022/07/06 20:31:35;;;;;;;0.55;0.55;;;30.90;49.30;;;;;;11005522;27;20041;-78
2022/07/06 20:37:37;;;;;;;1.90;1.10;;;30.90;49.60;;;;;;11023930;32;20053;-77
2022/07/06 20:43:39;;;;;;;1.12;0.85;;;30.80;50.30;;;;;;11023600;32;20018;-78
2022/07/06 20:49:43;;;;;;;1.45;0.62;;;30.80;50.70;;;;;;11023372;32;20030;-77
2022/07/06 20:55:45;;;;;;;1.55;0.40;;;30.80;50.60;;;;;;11023261;32;20045;-77
2022/07/06 21:01:47;;;;;;;1.23;0.65;;;30.80;50.90;;;;;;11023124;32;20057;-77
2022/07/06 21:07:48;;;;;;;1.00;0.82;;;30.70;52.30;;;;;;11023037;32;20022;-78
2022/07/06 21:13:50;;;;;;;2.12;1.10;;;30.70;53.10;;;;;;11021914;32;20318;-78
2022/07/06 21:19:52;;;;;;;0.45;0.45;;;30.70;52.90;;;;;;11022314;32;20014;-77
2022/07/06 21:25:55;;;;;;;1.90;1.00;;;30.60;53.00;;;;;;11019742;32;20383;-78
2022/07/06 21:31:58;;;;;;;1.60;1.02;;;30.60;53.50;;;;;;11021962;32;20045;-78
2022/07/06 21:38:01;;;;;;;2.45;1.15;;;30.50;53.50;;;;;;11021817;32;20045;-78
2022/07/06 21:44:04;;;;;;;1.08;0.90;;;30.40;54.00;;;;;;11021627;32;20011;-77
2022/07/06 21:50:06;;;;;;;0.98;0.80;;;30.30;54.20;;;;;;11021290;32;20034;-78
2022/07/06 21:56:08;;;;;;;2.87;0.95;;;30.30;54.20;;;;;;11021126;32;20378;-78
2022/07/06 22:02:10;;;;;;;1.58;1.05;;;30.10;54.50;;;;;;11007207;32;20304;-78
2022/07/06 22:08:13;;;;;;;1.48;1.00;;;30.00;54.70;;;;;;11020709;32;20014;-78
2022/07/06 22:14:16;;;;;;;1.08;0.98;;;29.80;54.90;;;;;;11020539;32;20026;-77
2022/07/06 22:20:22;;;;;;;2.03;1.25;;;29.80;55.20;;;;;;11006615;32;20370;-78
2022/07/06 22:26:39;;;;;;;4.63;1.57;;;29.80;55.10;;;;;;11015485;32;20022;-78
2022/07/06 22:32:41;;;;;;;1.23;0.90;;;29.60;55.40;;;;;;11013571;32;20037;-78
2022/07/06 22:38:43;;;;;;;0.70;0.70;;;29.50;55.60;;;;;;11019450;32;20018;-78
2022/07/06 22:44:46;;;;;;;0.85;0.77;;;29.40;55.90;;;;;;11005741;32;20041;-78
2022/07/06 22:50:48;;;;;;;0.80;0.70;;;29.30;56.00;;;;;;11019320;32;20041;-78
2022/07/06 22:56:50;;;;;;;1.08;1.02;;;29.30;56.30;;;;;;11019103;32;20053;-78
2022/07/06 23:02:52;;;;;;;1.80;1.20;;;29.40;57.00;;;;;;11005071;32;20060;-78
2022/07/06 23:08:55;;;;;;;3.83;1.15;;;29.40;57.20;;;;;;11005088;32;20023;-78
2022/07/06 23:14:57;;;;;;;2.22;1.42;;;29.40;57.10;;;;;;11018377;32;20084;-78
2022/07/06 23:20:59;;;;;;;3.70;1.08;;;29.40;57.20;;;;;;11018144;32;20056;-78
2022/07/06 23:27:02;;;;;;;1.25;1.12;;;29.30;57.20;;;;;;11018240;32;20119;-78
2022/07/06 23:33:04;;;;;;;0.95;0.82;;;29.00;57.60;;;;;;11017967;32;20053;-69
2022/07/06 23:39:07;;;;;;;1.62;1.10;;;28.90;57.90;;;;;;11013009;32;20031;-68
2022/07/06 23:45:09;;;;;;;1.52;1.10;;;28.90;57.90;;;;;;11015677;32;20034;-68
2022/07/06 23:51:11;;;;;;;2.58;1.20;;;28.90;57.90;;;;;;11013288;32;20436;-68
2022/07/06 23:57:13;;;;;;;2.55;1.30;;;28.80;57.80;;;;;;11013381;32;20053;-68
